sensor_id;sensor_type;location;lat;lon;timestamp;temperature;humidity
28438;DHT22;15667;52.376;9.708;2023-02-18T00:00:52;8.30;99.90
28438;DHT22;15667;52.376;9.708;2023-02-18T00:03:18;7.70;99.90
28438;DHT22;15667;52.376;9.708;2023-02-18T00:05:44;7.70;99.90
28438;DHT22;15667;52.376;9.708;2023-02-18T00:08:13;7.70;99.90
28438;DHT22;15667;52.376;9.708;2023-02-18T00:10:42;7.60;99.90
28438;DHT22;15667;52.376;9.708;2023-02-18T00:13:08;7.70;99.90
28438;DHT22;15667;52.376;9.708;2023-02-18T00:15:35;7.70;99.90
28438;DHT22;15667;52.376;9.708;2023-02-18T00:18:01;7.60;99.90
28438;DHT22;15667;52.376;9.708;2023-02-18T00:20:27;7.60;99.90
28438;DHT22;15667;52.376;9.708;2023-02-18T00:22:52;7.70;99.90
28438;DHT22;15667;52.376;9.708;2023-02-18T00:25:18;8.80;99.90
28438;DHT22;15667;52.376;9.708;2023-02-18T00:27:47;7.40;99.90
28438;DHT22;15667;52.376;9.708;2023-02-18T00:30:13;7.60;99.90
28438;DHT22;15667;52.376;9.708;2023-02-18T00:32:39;7.70;99.90
28438;DHT22;15667;52.376;9.708;2023-02-18T00:35:05;7.60;99.90
28438;DHT22;15667;52.376;9.708;2023-02-18T00:37:33;7.60;99.90
28438;DHT22;15667;52.376;9.708;2023-02-18T00:40:01;7.60;99.90
28438;DHT22;15667;52.376;9.708;2023-02-18T00:42:27;7.70;99.90
28438;DHT22;15667;52.376;9.708;2023-02-18T00:44:53;7.70;99.90
28438;DHT22;15667;52.376;9.708;2023-02-18T00:47:19;7.70;99.90
28438;DHT22;15667;52.376;9.708;2023-02-18T00:49:45;7.60;99.90
28438;DHT22;15667;52.376;9.708;2023-02-18T00:52:11;6.40;99.90
28438;DHT22;15667;52.376;9.708;2023-02-18T00:54:37;7.70;99.90
28438;DHT22;15667;52.376;9.708;2023-02-18T00:57:03;8.30;99.90
28438;DHT22;15667;52.376;9.708;2023-02-18T00:59:28;7.60;99.90
28438;DHT22;15667;52.376;9.708;2023-02-18T01:01:54;7.80;99.90
28438;DHT22;15667;52.376;9.708;2023-02-18T01:04:19;7.60;99.90
28438;DHT22;15667;52.376;9.708;2023-02-18T01:06:45;8.80;99.90
28438;DHT22;15667;52.376;9.708;2023-02-18T01:09:11;7.50;99.90
28438;DHT22;15667;52.376;9.708;2023-02-18T01:11:36;7.70;99.90
28438;DHT22;15667;52.376;9.708;2023-02-18T01:14:02;7.80;99.90
28438;DHT22;15667;52.376;9.708;2023-02-18T01:16:28;8.30;99.90
28438;DHT22;15667;52.376;9.708;2023-02-18T01:18:54;8.50;99.90
28438;DHT22;15667;52.376;9.708;2023-02-18T01:21:20;7.60;99.90
28438;DHT22;15667;52.376;9.708;2023-02-18T01:23:45;7.70;99.90
28438;DHT22;15667;52.376;9.708;2023-02-18T01:26:11;8.60;99.90
28438;DHT22;15667;52.376;9.708;2023-02-18T01:28:38;8.70;99.90
28438;DHT22;15667;52.376;9.708;2023-02-18T01:31:07;7.70;99.90
28438;DHT22;15667;52.376;9.708;2023-02-18T01:33:33;8.00;99.90
28438;DHT22;15667;52.376;9.708;2023-02-18T01:35:59;7.80;99.90
28438;DHT22;15667;52.376;9.708;2023-02-18T01:38:24;7.80;99.90
28438;DHT22;15667;52.376;9.708;2023-02-18T01:40:51;7.80;99.90
28438;DHT22;15667;52.376;9.708;2023-02-18T01:43:19;8.80;99.90
28438;DHT22;15667;52.376;9.708;2023-02-18T01:45:51;7.80;99.90
28438;DHT22;15667;52.376;9.708;2023-02-18T01:48:45;7.90;99.90
28438;DHT22;15667;52.376;9.708;2023-02-18T01:54:39;8.90;99.90
28438;DHT22;15667;52.376;9.708;2023-02-18T01:57:19;8.00;99.90
28438;DHT22;15667;52.376;9.708;2023-02-18T01:59:51;8.10;99.90
28438;DHT22;15667;52.376;9.708;2023-02-18T02:02:20;8.10;99.90
28438;DHT22;15667;52.376;9.708;2023-02-18T02:04:46;8.10;99.90
28438;DHT22;15667;52.376;9.708;2023-02-18T02:07:14;8.10;99.90
28438;DHT22;15667;52.376;9.708;2023-02-18T02:09:40;8.20;99.90
28438;DHT22;15667;52.376;9.708;2023-02-18T02:37:56;8.30;99.90
28438;DHT22;15667;52.376;9.708;2023-02-18T02:44:06;8.30;99.90
28438;DHT22;15667;52.376;9.708;2023-02-18T02:47:00;8.20;99.90
28438;DHT22;15667;52.376;9.708;2023-02-18T02:49:46;8.40;99.90
28438;DHT22;15667;52.376;9.708;2023-02-18T02:52:19;8.20;99.90
28438;DHT22;15667;52.376;9.708;2023-02-18T02:54:46;8.20;99.90
28438;DHT22;15667;52.376;9.708;2023-02-18T02:59:43;8.30;99.90
28438;DHT22;15667;52.376;9.708;2023-02-18T03:02:36;8.30;99.90
28438;DHT22;15667;52.376;9.708;2023-02-18T03:05:36;8.30;99.90
28438;DHT22;15667;52.376;9.708;2023-02-18T03:10:42;8.40;99.90
28438;DHT22;15667;52.376;9.708;2023-02-18T03:19:28;8.30;99.90
28438;DHT22;15667;52.376;9.708;2023-02-18T03:22:26;8.30;99.90
28438;DHT22;15667;52.376;9.708;2023-02-18T03:24:55;8.30;99.90
28438;DHT22;15667;52.376;9.708;2023-02-18T03:27:37;8.30;99.90
28438;DHT22;15667;52.376;9.708;2023-02-18T03:30:13;8.30;99.90
28438;DHT22;15667;52.376;9.708;2023-02-18T03:32:40;8.30;99.90
28438;DHT22;15667;52.376;9.708;2023-02-18T03:35:15;8.40;99.90
28438;DHT22;15667;52.376;9.708;2023-02-18T03:37:47;8.40;99.90
28438;DHT22;15667;52.376;9.708;2023-02-18T03:40:16;8.40;99.90
28438;DHT22;15667;52.376;9.708;2023-02-18T03:42:42;8.40;99.90
28438;DHT22;15667;52.376;9.708;2023-02-18T03:45:08;8.40;99.90
28438;DHT22;15667;52.376;9.708;2023-02-18T03:47:33;8.70;99.90
28438;DHT22;15667;52.376;9.708;2023-02-18T03:49:59;8.40;99.90
28438;DHT22;15667;52.376;9.708;2023-02-18T03:52:25;8.40;99.90
28438;DHT22;15667;52.376;9.708;2023-02-18T03:54:50;8.50;99.90
28438;DHT22;15667;52.376;9.708;2023-02-18T03:57:16;8.60;99.90
28438;DHT22;15667;52.376;9.708;2023-02-18T03:59:42;8.50;99.90
28438;DHT22;15667;52.376;9.708;2023-02-18T04:02:08;8.60;99.90
28438;DHT22;15667;52.376;9.708;2023-02-18T04:04:33;8.50;99.90
28438;DHT22;15667;52.376;9.708;2023-02-18T04:06:59;8.60;99.90
28438;DHT22;15667;52.376;9.708;2023-02-18T04:09:25;8.60;99.90
28438;DHT22;15667;52.376;9.708;2023-02-18T04:11:51;8.60;99.90
28438;DHT22;15667;52.376;9.708;2023-02-18T04:14:16;8.50;99.90
28438;DHT22;15667;52.376;9.708;2023-02-18T04:16:42;8.60;99.90
28438;DHT22;15667;52.376;9.708;2023-02-18T04:19:08;8.50;99.90
28438;DHT22;15667;52.376;9.708;2023-02-18T04:21:34;8.60;99.90
28438;DHT22;15667;52.376;9.708;2023-02-18T04:24:00;8.90;99.90
28438;DHT22;15667;52.376;9.708;2023-02-18T04:26:26;9.90;99.90
28438;DHT22;15667;52.376;9.708;2023-02-18T04:28:52;8.70;99.90
28438;DHT22;15667;52.376;9.708;2023-02-18T04:31:17;8.50;99.90
28438;DHT22;15667;52.376;9.708;2023-02-18T04:33:43;8.50;99.90
28438;DHT22;15667;52.376;9.708;2023-02-18T04:36:09;9.20;99.90
28438;DHT22;15667;52.376;9.708;2023-02-18T04:38:35;8.90;99.90
28438;DHT22;15667;52.376;9.708;2023-02-18T04:41:00;8.10;99.90
28438;DHT22;15667;52.376;9.708;2023-02-18T04:43:26;8.10;99.90
28438;DHT22;15667;52.376;9.708;2023-02-18T04:45:52;8.80;99.90
28438;DHT22;15667;52.376;9.708;2023-02-18T04:48:18;7.90;99.90
28438;DHT22;15667;52.376;9.708;2023-02-18T04:50:45;7.80;99.90
28438;DHT22;15667;52.376;9.708;2023-02-18T04:53:10;7.80;99.90
28438;DHT22;15667;52.376;9.708;2023-02-18T04:55:36;7.80;99.90
28438;DHT22;15667;52.376;9.708;2023-02-18T04:58:02;7.70;99.90
28438;DHT22;15667;52.376;9.708;2023-02-18T05:00:28;8.00;99.90
28438;DHT22;15667;52.376;9.708;2023-02-18T05:02:54;7.50;99.90
28438;DHT22;15667;52.376;9.708;2023-02-18T05:05:19;7.50;99.90
28438;DHT22;15667;52.376;9.708;2023-02-18T05:07:45;7.50;99.90
28438;DHT22;15667;52.376;9.708;2023-02-18T05:10:15;8.30;99.90
28438;DHT22;15667;52.376;9.708;2023-02-18T05:12:41;7.40;99.90
28438;DHT22;15667;52.376;9.708;2023-02-18T05:15:07;7.30;99.90
28438;DHT22;15667;52.376;9.708;2023-02-18T05:17:33;7.30;99.90
28438;DHT22;15667;52.376;9.708;2023-02-18T05:19:59;7.30;99.90
28438;DHT22;15667;52.376;9.708;2023-02-18T05:22:25;8.30;99.90
28438;DHT22;15667;52.376;9.708;2023-02-18T05:24:50;7.70;99.90
28438;DHT22;15667;52.376;9.708;2023-02-18T05:27:16;7.40;99.90
28438;DHT22;15667;52.376;9.708;2023-02-18T05:29:42;7.50;99.90
28438;DHT22;15667;52.376;9.708;2023-02-18T05:32:08;7.40;99.90
28438;DHT22;15667;52.376;9.708;2023-02-18T05:34:34;7.30;99.90
28438;DHT22;15667;52.376;9.708;2023-02-18T05:36:59;7.40;99.90
28438;DHT22;15667;52.376;9.708;2023-02-18T05:39:25;7.30;99.90
28438;DHT22;15667;52.376;9.708;2023-02-18T05:41:51;7.40;99.90
28438;DHT22;15667;52.376;9.708;2023-02-18T05:44:17;7.40;99.90
28438;DHT22;15667;52.376;9.708;2023-02-18T05:47:00;7.40;99.90
28438;DHT22;15667;52.376;9.708;2023-02-18T05:49:31;8.30;99.90
28438;DHT22;15667;52.376;9.708;2023-02-18T05:55:32;7.50;99.90
28438;DHT22;15667;52.376;9.708;2023-02-18T05:58:31;7.70;99.90
28438;DHT22;15667;52.376;9.708;2023-02-18T06:01:12;7.70;99.90
28438;DHT22;15667;52.376;9.708;2023-02-18T06:03:38;7.80;99.90
28438;DHT22;15667;52.376;9.708;2023-02-18T06:06:04;8.60;99.90
28438;DHT22;15667;52.376;9.708;2023-02-18T06:08:41;7.90;99.90
28438;DHT22;15667;52.376;9.708;2023-02-18T06:11:07;7.90;99.90
28438;DHT22;15667;52.376;9.708;2023-02-18T06:13:33;8.00;99.90
28438;DHT22;15667;52.376;9.708;2023-02-18T06:15:58;9.20;99.90
28438;DHT22;15667;52.376;9.708;2023-02-18T06:18:24;8.00;99.90
28438;DHT22;15667;52.376;9.708;2023-02-18T06:20:50;8.00;99.90
28438;DHT22;15667;52.376;9.708;2023-02-18T06:23:16;8.10;99.90
28438;DHT22;15667;52.376;9.708;2023-02-18T06:25:41;8.10;99.90
28438;DHT22;15667;52.376;9.708;2023-02-18T06:28:07;8.70;99.90
28438;DHT22;15667;52.376;9.708;2023-02-18T06:30:33;9.30;99.90
28438;DHT22;15667;52.376;9.708;2023-02-18T06:32:59;8.60;99.90
28438;DHT22;15667;52.376;9.708;2023-02-18T06:35:24;8.10;99.90
28438;DHT22;15667;52.376;9.708;2023-02-18T06:37:50;8.10;99.90
28438;DHT22;15667;52.376;9.708;2023-02-18T06:40:16;8.20;99.90
28438;DHT22;15667;52.376;9.708;2023-02-18T06:42:43;8.20;99.90
28438;DHT22;15667;52.376;9.708;2023-02-18T06:45:08;8.20;99.90
28438;DHT22;15667;52.376;9.708;2023-02-18T06:47:34;8.20;99.90
28438;DHT22;15667;52.376;9.708;2023-02-18T06:50:00;8.20;99.90
28438;DHT22;15667;52.376;9.708;2023-02-18T06:52:26;8.20;99.90
28438;DHT22;15667;52.376;9.708;2023-02-18T06:54:51;8.30;99.90
28438;DHT22;15667;52.376;9.708;2023-02-18T06:57:17;8.30;99.90
28438;DHT22;15667;52.376;9.708;2023-02-18T06:59:43;8.30;99.90
28438;DHT22;15667;52.376;9.708;2023-02-18T07:02:13;8.30;99.90
28438;DHT22;15667;52.376;9.708;2023-02-18T07:04:39;8.40;99.90
28438;DHT22;15667;52.376;9.708;2023-02-18T07:07:05;8.40;99.90
28438;DHT22;15667;52.376;9.708;2023-02-18T07:09:30;8.30;99.90
28438;DHT22;15667;52.376;9.708;2023-02-18T07:11:56;8.30;99.90
28438;DHT22;15667;52.376;9.708;2023-02-18T07:14:25;8.60;99.90
28438;DHT22;15667;52.376;9.708;2023-02-18T07:16:54;9.10;99.90
28438;DHT22;15667;52.376;9.708;2023-02-18T07:19:19;8.50;99.90
28438;DHT22;15667;52.376;9.708;2023-02-18T07:21:45;8.80;99.90
28438;DHT22;15667;52.376;9.708;2023-02-18T07:24:11;9.30;99.90
28438;DHT22;15667;52.376;9.708;2023-02-18T07:26:37;9.00;99.90
28438;DHT22;15667;52.376;9.708;2023-02-18T07:29:25;8.40;99.90
28438;DHT22;15667;52.376;9.708;2023-02-18T07:31:51;8.90;99.90
28438;DHT22;15667;52.376;9.708;2023-02-18T07:34:19;8.00;99.90
28438;DHT22;15667;52.376;9.708;2023-02-18T07:36:48;7.90;99.90
28438;DHT22;15667;52.376;9.708;2023-02-18T07:39:17;8.30;99.90
28438;DHT22;15667;52.376;9.708;2023-02-18T07:41:46;8.60;99.90
28438;DHT22;15667;52.376;9.708;2023-02-18T07:44:12;8.50;99.90
28438;DHT22;15667;52.376;9.708;2023-02-18T07:46:40;9.50;99.90
28438;DHT22;15667;52.376;9.708;2023-02-18T07:49:06;8.40;99.90
28438;DHT22;15667;52.376;9.708;2023-02-18T07:51:32;8.70;99.90
28438;DHT22;15667;52.376;9.708;2023-02-18T07:53:57;8.50;99.90
28438;DHT22;15667;52.376;9.708;2023-02-18T07:56:23;8.70;99.90
28438;DHT22;15667;52.376;9.708;2023-02-18T07:58:49;9.20;99.90
28438;DHT22;15667;52.376;9.708;2023-02-18T08:01:14;9.40;99.90
28438;DHT22;15667;52.376;9.708;2023-02-18T08:03:41;8.90;99.90
28438;DHT22;15667;52.376;9.708;2023-02-18T08:06:07;9.10;99.90
28438;DHT22;15667;52.376;9.708;2023-02-18T08:08:34;9.30;99.90
28438;DHT22;15667;52.376;9.708;2023-02-18T08:11:01;9.10;99.90
28438;DHT22;15667;52.376;9.708;2023-02-18T08:13:32;9.20;99.90
28438;DHT22;15667;52.376;9.708;2023-02-18T08:15:58;9.70;99.90
28438;DHT22;15667;52.376;9.708;2023-02-18T08:22:23;8.80;99.90
28438;DHT22;15667;52.376;9.708;2023-02-18T08:25:33;9.40;99.90
28438;DHT22;15667;52.376;9.708;2023-02-18T08:28:24;9.60;99.90
28438;DHT22;15667;52.376;9.708;2023-02-18T08:41:58;9.80;99.90
28438;DHT22;15667;52.376;9.708;2023-02-18T08:45:06;9.30;99.90
28438;DHT22;15667;52.376;9.708;2023-02-18T08:47:32;9.80;99.90
28438;DHT22;15667;52.376;9.708;2023-02-18T08:49:58;9.90;99.90
28438;DHT22;15667;52.376;9.708;2023-02-18T08:52:55;10.40;99.90
28438;DHT22;15667;52.376;9.708;2023-02-18T08:55:34;9.90;99.90
28438;DHT22;15667;52.376;9.708;2023-02-18T08:58:06;9.90;99.90
28438;DHT22;15667;52.376;9.708;2023-02-18T09:00:38;9.30;99.90
28438;DHT22;15667;52.376;9.708;2023-02-18T09:03:04;9.40;99.90
28438;DHT22;15667;52.376;9.708;2023-02-18T09:05:30;10.00;99.90
28438;DHT22;15667;52.376;9.708;2023-02-18T09:07:56;10.00;99.90
28438;DHT22;15667;52.376;9.708;2023-02-18T09:10:33;10.10;99.90
28438;DHT22;15667;52.376;9.708;2023-02-18T09:12:59;10.70;99.90
28438;DHT22;15667;52.376;9.708;2023-02-18T09:15:25;10.80;99.90
28438;DHT22;15667;52.376;9.708;2023-02-18T09:17:51;10.10;99.90
28438;DHT22;15667;52.376;9.708;2023-02-18T09:20:21;10.10;99.90
28438;DHT22;15667;52.376;9.708;2023-02-18T09:35:10;10.30;99.90
28438;DHT22;15667;52.376;9.708;2023-02-18T09:37:35;10.40;99.90
28438;DHT22;15667;52.376;9.708;2023-02-18T09:40:02;10.10;99.90
28438;DHT22;15667;52.376;9.708;2023-02-18T09:42:31;10.50;99.90
28438;DHT22;15667;52.376;9.708;2023-02-18T09:45:01;10.80;99.90
28438;DHT22;15667;52.376;9.708;2023-02-18T09:47:34;11.10;99.90
28438;DHT22;15667;52.376;9.708;2023-02-18T09:50:16;10.80;99.90
28438;DHT22;15667;52.376;9.708;2023-02-18T09:52:49;10.60;99.90
28438;DHT22;15667;52.376;9.708;2023-02-18T09:55:24;11.70;99.90
28438;DHT22;15667;52.376;9.708;2023-02-18T09:58:12;10.50;99.90
28438;DHT22;15667;52.376;9.708;2023-02-18T10:00:43;11.60;99.90
28438;DHT22;15667;52.376;9.708;2023-02-18T10:03:15;10.50;99.90
28438;DHT22;15667;52.376;9.708;2023-02-18T10:11:01;10.50;99.90
28438;DHT22;15667;52.376;9.708;2023-02-18T10:13:29;11.60;99.90
28438;DHT22;15667;52.376;9.708;2023-02-18T10:15:55;11.20;99.90
28438;DHT22;15667;52.376;9.708;2023-02-18T10:18:33;10.60;99.90
28438;DHT22;15667;52.376;9.708;2023-02-18T10:21:06;10.70;99.90
28438;DHT22;15667;52.376;9.708;2023-02-18T10:23:37;10.60;99.90
28438;DHT22;15667;52.376;9.708;2023-02-18T10:26:07;10.50;99.90
28438;DHT22;15667;52.376;9.708;2023-02-18T10:28:35;11.40;99.90
28438;DHT22;15667;52.376;9.708;2023-02-18T10:31:05;10.40;99.90
28438;DHT22;15667;52.376;9.708;2023-02-18T10:36:48;10.30;99.90
28438;DHT22;15667;52.376;9.708;2023-02-18T10:39:47;11.40;99.90
28438;DHT22;15667;52.376;9.708;2023-02-18T10:42:28;10.30;99.90
28438;DHT22;15667;52.376;9.708;2023-02-18T10:45:07;10.20;99.90
28438;DHT22;15667;52.376;9.708;2023-02-18T10:50:47;10.70;99.90
28438;DHT22;15667;52.376;9.708;2023-02-18T10:53:34;10.30;99.90
28438;DHT22;15667;52.376;9.708;2023-02-18T10:56:05;10.20;99.90
28438;DHT22;15667;52.376;9.708;2023-02-18T10:58:47;10.30;99.90
28438;DHT22;15667;52.376;9.708;2023-02-18T11:01:37;9.70;99.90
28438;DHT22;15667;52.376;9.708;2023-02-18T11:04:15;10.20;99.90
28438;DHT22;15667;52.376;9.708;2023-02-18T11:06:50;10.30;99.90
28438;DHT22;15667;52.376;9.708;2023-02-18T11:12:24;10.10;99.90
28438;DHT22;15667;52.376;9.708;2023-02-18T11:15:15;10.40;99.90
28438;DHT22;15667;52.376;9.708;2023-02-18T11:17:49;10.40;99.90
28438;DHT22;15667;52.376;9.708;2023-02-18T11:20:39;10.50;99.90
28438;DHT22;15667;52.376;9.708;2023-02-18T11:23:20;10.50;99.90
28438;DHT22;15667;52.376;9.708;2023-02-18T11:25:59;11.30;99.90
28438;DHT22;15667;52.376;9.708;2023-02-18T11:28:42;9.10;99.90
28438;DHT22;15667;52.376;9.708;2023-02-18T11:31:15;10.40;99.90
28438;DHT22;15667;52.376;9.708;2023-02-18T11:33:43;11.00;99.90
28438;DHT22;15667;52.376;9.708;2023-02-18T11:36:24;10.30;99.90
28438;DHT22;15667;52.376;9.708;2023-02-18T11:38:58;10.30;99.90
28438;DHT22;15667;52.376;9.708;2023-02-18T11:43:59;10.20;99.90
28438;DHT22;15667;52.376;9.708;2023-02-18T11:46:26;10.20;99.90
28438;DHT22;15667;52.376;9.708;2023-02-18T11:48:53;10.10;99.90
28438;DHT22;15667;52.376;9.708;2023-02-18T11:51:26;10.20;99.90
28438;DHT22;15667;52.376;9.708;2023-02-18T11:54:28;10.20;99.90
28438;DHT22;15667;52.376;9.708;2023-02-18T11:57:24;10.10;99.90
28438;DHT22;15667;52.376;9.708;2023-02-18T11:59:52;10.00;99.90
28438;DHT22;15667;52.376;9.708;2023-02-18T12:02:35;10.00;99.90
28438;DHT22;15667;52.376;9.708;2023-02-18T12:05:22;10.00;99.90
28438;DHT22;15667;52.376;9.708;2023-02-18T12:10:48;9.90;99.90
28438;DHT22;15667;52.376;9.708;2023-02-18T12:13:35;9.10;99.90
28438;DHT22;15667;52.376;9.708;2023-02-18T12:24:23;9.80;99.90
28438;DHT22;15667;52.376;9.708;2023-02-18T12:34:07;9.80;99.90
28438;DHT22;15667;52.376;9.708;2023-02-18T12:45:55;9.70;99.90
28438;DHT22;15667;52.376;9.708;2023-02-18T12:57:18;9.80;99.90
28438;DHT22;15667;52.376;9.708;2023-02-18T13:05:53;9.00;99.90
28438;DHT22;15667;52.376;9.708;2023-02-18T13:08:37;10.00;99.90
28438;DHT22;15667;52.376;9.708;2023-02-18T13:14:03;10.00;99.90
28438;DHT22;15667;52.376;9.708;2023-02-18T13:16:34;10.00;99.90
28438;DHT22;15667;52.376;9.708;2023-02-18T13:21:48;9.90;99.90
28438;DHT22;15667;52.376;9.708;2023-02-18T13:24:38;10.50;99.90
28438;DHT22;15667;52.376;9.708;2023-02-18T13:29:45;10.30;99.90
28438;DHT22;15667;52.376;9.708;2023-02-18T13:32:25;9.80;99.90
28438;DHT22;15667;52.376;9.708;2023-02-18T13:35:18;9.90;99.90
28438;DHT22;15667;52.376;9.708;2023-02-18T13:40:37;9.80;99.90
28438;DHT22;15667;52.376;9.708;2023-02-18T13:43:30;9.90;99.90
28438;DHT22;15667;52.376;9.708;2023-02-18T13:49:20;9.80;99.90
28438;DHT22;15667;52.376;9.708;2023-02-18T13:51:44;9.10;99.90
28438;DHT22;15667;52.376;9.708;2023-02-18T13:56:45;9.80;99.90
28438;DHT22;15667;52.376;9.708;2023-02-18T14:01:51;9.80;99.90
28438;DHT22;15667;52.376;9.708;2023-02-18T14:09:44;9.60;99.90
28438;DHT22;15667;52.376;9.708;2023-02-18T14:14:54;9.90;99.90
28438;DHT22;15667;52.376;9.708;2023-02-18T14:22:31;9.20;99.90
28438;DHT22;15667;52.376;9.708;2023-02-18T14:25:19;9.50;99.90
28438;DHT22;15667;52.376;9.708;2023-02-18T14:27:52;9.50;99.90
28438;DHT22;15667;52.376;9.708;2023-02-18T14:32:49;9.50;99.90
28438;DHT22;15667;52.376;9.708;2023-02-18T14:35:26;9.50;99.90
28438;DHT22;15667;52.376;9.708;2023-02-18T14:43:43;9.50;99.90
28438;DHT22;15667;52.376;9.708;2023-02-18T14:46:23;9.50;99.90
28438;DHT22;15667;52.376;9.708;2023-02-18T14:51:24;9.50;99.90
28438;DHT22;15667;52.376;9.708;2023-02-18T14:53:51;9.90;99.90
28438;DHT22;15667;52.376;9.708;2023-02-18T14:56:19;9.50;99.90
28438;DHT22;15667;52.376;9.708;2023-02-18T14:58:58;9.60;99.90
28438;DHT22;15667;52.376;9.708;2023-02-18T15:01:31;9.30;99.90
28438;DHT22;15667;52.376;9.708;2023-02-18T15:03:57;9.60;99.90
28438;DHT22;15667;52.376;9.708;2023-02-18T15:06:34;9.60;99.90
28438;DHT22;15667;52.376;9.708;2023-02-18T15:09:13;9.60;99.90
28438;DHT22;15667;52.376;9.708;2023-02-18T15:12:02;9.60;99.90
28438;DHT22;15667;52.376;9.708;2023-02-18T15:14:31;9.60;99.90
28438;DHT22;15667;52.376;9.708;2023-02-18T15:16:58;9.60;99.90
28438;DHT22;15667;52.376;9.708;2023-02-18T15:19:27;9.60;99.90
28438;DHT22;15667;52.376;9.708;2023-02-18T15:21:56;9.60;99.90
28438;DHT22;15667;52.376;9.708;2023-02-18T15:24:26;9.60;99.90
28438;DHT22;15667;52.376;9.708;2023-02-18T15:26:58;9.60;99.90
28438;DHT22;15667;52.376;9.708;2023-02-18T15:29:27;9.60;99.90
28438;DHT22;15667;52.376;9.708;2023-02-18T15:31:55;9.60;99.90
28438;DHT22;15667;52.376;9.708;2023-02-18T15:36:57;10.30;99.90
28438;DHT22;15667;52.376;9.708;2023-02-18T15:39:23;9.60;99.90
28438;DHT22;15667;52.376;9.708;2023-02-18T15:41:54;9.70;99.90
28438;DHT22;15667;52.376;9.708;2023-02-18T15:44:26;10.50;99.90
28438;DHT22;15667;52.376;9.708;2023-02-18T15:46:53;9.70;99.90
28438;DHT22;15667;52.376;9.708;2023-02-18T15:49:21;9.60;99.90
28438;DHT22;15667;52.376;9.708;2023-02-18T15:51:48;10.00;99.90
28438;DHT22;15667;52.376;9.708;2023-02-18T15:54:21;9.60;99.90
28438;DHT22;15667;52.376;9.708;2023-02-18T15:56:53;9.60;99.90
28438;DHT22;15667;52.376;9.708;2023-02-18T15:59:53;9.60;99.90
28438;DHT22;15667;52.376;9.708;2023-02-18T16:02:21;9.60;99.90
28438;DHT22;15667;52.376;9.708;2023-02-18T16:04:57;9.60;99.90
28438;DHT22;15667;52.376;9.708;2023-02-18T16:07:31;9.50;99.90
28438;DHT22;15667;52.376;9.708;2023-02-18T16:10:23;9.50;99.90
28438;DHT22;15667;52.376;9.708;2023-02-18T16:12:54;9.50;99.90
28438;DHT22;15667;52.376;9.708;2023-02-18T16:15:44;9.50;99.90
28438;DHT22;15667;52.376;9.708;2023-02-18T16:18:39;9.50;99.90
28438;DHT22;15667;52.376;9.708;2023-02-18T16:21:23;9.50;99.90
28438;DHT22;15667;52.376;9.708;2023-02-18T16:23:58;9.50;99.90
28438;DHT22;15667;52.376;9.708;2023-02-18T16:26:56;9.60;99.90
28438;DHT22;15667;52.376;9.708;2023-02-18T16:29:39;9.60;99.90
28438;DHT22;15667;52.376;9.708;2023-02-18T16:32:05;9.60;99.90
28438;DHT22;15667;52.376;9.708;2023-02-18T16:34:31;9.50;99.90
28438;DHT22;15667;52.376;9.708;2023-02-18T16:36:57;9.60;99.90
28438;DHT22;15667;52.376;9.708;2023-02-18T16:39:41;9.50;99.90
28438;DHT22;15667;52.376;9.708;2023-02-18T16:42:13;10.00;99.90
28438;DHT22;15667;52.376;9.708;2023-02-18T16:44:39;9.50;99.90
28438;DHT22;15667;52.376;9.708;2023-02-18T16:47:05;9.50;99.90
28438;DHT22;15667;52.376;9.708;2023-02-18T16:49:33;9.50;99.90
28438;DHT22;15667;52.376;9.708;2023-02-18T16:52:00;9.50;99.90
28438;DHT22;15667;52.376;9.708;2023-02-18T16:54:30;9.50;99.90
28438;DHT22;15667;52.376;9.708;2023-02-18T16:56:55;9.40;99.90
28438;DHT22;15667;52.376;9.708;2023-02-18T16:59:24;9.40;99.90
28438;DHT22;15667;52.376;9.708;2023-02-18T17:01:50;9.40;99.90
28438;DHT22;15667;52.376;9.708;2023-02-18T17:04:17;9.30;99.90
28438;DHT22;15667;52.376;9.708;2023-02-18T17:06:47;9.30;99.90
28438;DHT22;15667;52.376;9.708;2023-02-18T17:09:19;9.40;99.90
28438;DHT22;15667;52.376;9.708;2023-02-18T17:11:48;9.90;99.90
28438;DHT22;15667;52.376;9.708;2023-02-18T17:14:18;9.40;99.90
28438;DHT22;15667;52.376;9.708;2023-02-18T17:16:45;9.90;99.90
28438;DHT22;15667;52.376;9.708;2023-02-18T17:19:11;9.40;99.90
28438;DHT22;15667;52.376;9.708;2023-02-18T17:21:37;9.80;99.90
28438;DHT22;15667;52.376;9.708;2023-02-18T17:24:03;9.40;99.90
28438;DHT22;15667;52.376;9.708;2023-02-18T17:26:29;9.40;99.90
28438;DHT22;15667;52.376;9.708;2023-02-18T17:28:58;9.30;99.90
28438;DHT22;15667;52.376;9.708;2023-02-18T17:31:30;9.30;99.90
28438;DHT22;15667;52.376;9.708;2023-02-18T17:34:02;9.50;99.90
28438;DHT22;15667;52.376;9.708;2023-02-18T17:36:29;9.40;99.90
28438;DHT22;15667;52.376;9.708;2023-02-18T17:38:54;9.50;99.90
28438;DHT22;15667;52.376;9.708;2023-02-18T17:41:20;9.60;99.90
28438;DHT22;15667;52.376;9.708;2023-02-18T17:43:46;10.00;99.90
28438;DHT22;15667;52.376;9.708;2023-02-18T17:46:14;9.70;99.90
28438;DHT22;15667;52.376;9.708;2023-02-18T17:48:41;9.70;99.90
28438;DHT22;15667;52.376;9.708;2023-02-18T17:51:07;9.80;99.90
28438;DHT22;15667;52.376;9.708;2023-02-18T17:53:33;9.90;99.90
28438;DHT22;15667;52.376;9.708;2023-02-18T17:55:59;9.90;99.90
28438;DHT22;15667;52.376;9.708;2023-02-18T17:58:25;9.90;99.90
28438;DHT22;15667;52.376;9.708;2023-02-18T18:00:56;9.80;99.90
28438;DHT22;15667;52.376;9.708;2023-02-18T18:03:22;9.90;99.90
28438;DHT22;15667;52.376;9.708;2023-02-18T18:05:49;9.90;99.90
28438;DHT22;15667;52.376;9.708;2023-02-18T18:08:19;9.90;99.90
28438;DHT22;15667;52.376;9.708;2023-02-18T18:10:55;10.00;99.90
28438;DHT22;15667;52.376;9.708;2023-02-18T18:13:28;9.90;99.90
28438;DHT22;15667;52.376;9.708;2023-02-18T18:15:54;10.00;99.90
28438;DHT22;15667;52.376;9.708;2023-02-18T18:18:20;10.10;99.90
28438;DHT22;15667;52.376;9.708;2023-02-18T18:20:50;10.10;99.90
28438;DHT22;15667;52.376;9.708;2023-02-18T18:23:18;10.00;99.90
28438;DHT22;15667;52.376;9.708;2023-02-18T18:25:47;10.00;99.90
28438;DHT22;15667;52.376;9.708;2023-02-18T18:28:14;10.00;99.90
28438;DHT22;15667;52.376;9.708;2023-02-18T18:30:42;10.00;99.90
28438;DHT22;15667;52.376;9.708;2023-02-18T18:33:19;10.00;99.90
28438;DHT22;15667;52.376;9.708;2023-02-18T18:35:47;10.00;99.90
28438;DHT22;15667;52.376;9.708;2023-02-18T18:38:15;10.00;99.90
28438;DHT22;15667;52.376;9.708;2023-02-18T18:40:41;10.10;99.90
28438;DHT22;15667;52.376;9.708;2023-02-18T18:43:20;9.90;99.90
28438;DHT22;15667;52.376;9.708;2023-02-18T18:45:47;10.00;99.90
28438;DHT22;15667;52.376;9.708;2023-02-18T18:48:13;10.00;99.90
28438;DHT22;15667;52.376;9.708;2023-02-18T18:50:40;10.40;99.90
28438;DHT22;15667;52.376;9.708;2023-02-18T18:53:12;9.80;99.90
28438;DHT22;15667;52.376;9.708;2023-02-18T18:55:41;9.80;99.90
28438;DHT22;15667;52.376;9.708;2023-02-18T18:58:06;9.90;99.90
28438;DHT22;15667;52.376;9.708;2023-02-18T19:00:42;10.00;99.90
28438;DHT22;15667;52.376;9.708;2023-02-18T19:03:11;10.40;99.90
28438;DHT22;15667;52.376;9.708;2023-02-18T19:06:00;9.90;99.90